createdAt,value
2019-02-18T00:02:15.077Z,98271.36
2019-02-18T00:04:43.494Z,98274.72
2019-02-18T00:07:14.430Z,98274.72
2019-02-18T00:09:41.994Z,98267.05
2019-02-18T00:12:10.392Z,98263.67
2019-02-18T00:14:38.780Z,98277.16
2019-02-18T00:17:07.180Z,98272.89
2019-02-18T00:19:35.636Z,98269.08
2019-02-18T00:22:04.517Z,98268.17
2019-02-18T00:24:32.910Z,98265.20
2019-02-18T00:27:01.311Z,98266.84
2019-02-18T00:29:29.776Z,98266.41
2019-02-18T00:31:58.171Z,98270.59
2019-02-18T00:34:26.584Z,98274.33
2019-02-18T00:36:54.973Z,98269.25
2019-02-18T00:39:23.368Z,98269.19
2019-02-18T00:41:51.763Z,98274.27
2019-02-18T00:44:20.159Z,98265.31
2019-02-18T00:46:48.553Z,98267.42
2019-02-18T00:49:16.950Z,98266.97
2019-02-18T00:51:45.353Z,98269.91
2019-02-18T00:54:13.760Z,98269.45
2019-02-18T00:56:42.156Z,98260.95
2019-02-18T00:59:10.546Z,98265.57
2019-02-18T01:01:38.945Z,98266.41
2019-02-18T01:04:07.336Z,98271.50
2019-02-18T01:06:35.738Z,98271.01
2019-02-18T01:09:05.312Z,98268.89
2019-02-18T01:11:33.839Z,98271.78
2019-02-18T01:14:02.231Z,98267.98
2019-02-18T01:16:30.632Z,98265.44
2019-02-18T01:18:59.021Z,98272.17
2019-02-18T01:21:27.414Z,98264.06
2019-02-18T01:23:55.812Z,98262.77
2019-02-18T01:26:24.210Z,98263.61
2019-02-18T01:28:52.647Z,98258.88
2019-02-18T01:31:21.042Z,98258.46
2019-02-18T01:33:49.434Z,98254.19
2019-02-18T01:36:17.836Z,98255.04
2019-02-18T01:38:46.229Z,98246.89
2019-02-18T01:41:14.616Z,98241.33
2019-02-18T01:43:43.010Z,98243.02
2019-02-18T01:46:11.400Z,98232.79
2019-02-18T01:48:39.798Z,98236.14
2019-02-18T01:51:08.201Z,98235.26
2019-02-18T01:53:36.597Z,98238.64
2019-02-18T01:56:05.130Z,98231.45
2019-02-18T01:58:33.525Z,98231.91
2019-02-18T02:01:01.922Z,98228.48
2019-02-18T02:03:30.333Z,98220.41
2019-02-18T02:05:58.764Z,98221.68
2019-02-18T02:08:27.163Z,98217.87
2019-02-18T02:10:55.565Z,98214.06
2019-02-18T02:13:31.515Z,98212.30
2019-02-18T02:16:02.943Z,98207.65
2019-02-18T02:18:31.378Z,98202.95
2019-02-18T02:20:59.811Z,98202.50
2019-02-18T02:23:28.484Z,98204.58
2019-02-18T02:25:56.909Z,98197.36
2019-02-18T02:28:25.425Z,98195.63
2019-02-18T02:30:53.901Z,98191.39
2019-02-18T02:33:22.459Z,98187.52
2019-02-18T02:35:50.915Z,98191.26
2019-02-18T02:38:19.317Z,98191.72
2019-02-18T02:40:47.710Z,98183.19
2019-02-18T02:43:16.104Z,98186.96
2019-02-18T02:45:44.517Z,98183.12
2019-02-18T02:48:12.990Z,98185.66
2019-02-18T02:50:41.380Z,98180.94
2019-02-18T02:53:09.773Z,98180.91
2019-02-18T02:55:38.167Z,98178.36
2019-02-18T02:58:06.565Z,98183.86
2019-02-18T03:00:34.990Z,98178.78
2019-02-18T03:03:03.388Z,98177.48
2019-02-18T03:05:31.807Z,98172.69
2019-02-18T03:08:00.214Z,98173.50
2019-02-18T03:10:28.602Z,98169.69
2019-02-18T03:12:56.993Z,98172.66
2019-02-18T03:15:25.385Z,98129.27
2019-02-18T03:17:53.802Z,98176.00
2019-02-18T03:20:22.205Z,98174.70
2019-02-18T03:22:50.596Z,98171.67
2019-02-18T03:25:24.953Z,98172.52
2019-02-18T03:27:58.999Z,98170.78
2019-02-18T03:30:47.846Z,98169.02
2019-02-18T03:33:19.280Z,98176.25
2019-02-18T03:35:47.670Z,98170.72
2019-02-18T03:38:16.069Z,98172.80
2019-02-18T03:40:44.455Z,98170.64
2019-02-18T03:43:12.915Z,98168.92
2019-02-18T03:45:41.305Z,98163.03
2019-02-18T03:48:09.712Z,98163.81
2019-02-18T03:50:38.113Z,98165.92
2019-02-18T03:53:06.518Z,98169.69
2019-02-18T03:55:34.917Z,98174.77
2019-02-18T03:58:03.328Z,98167.54
2019-02-18T04:00:31.856Z,98169.16
2019-02-18T04:03:00.455Z,98167.82
2019-02-18T04:05:28.923Z,98170.32
2019-02-18T04:07:57.326Z,98170.74
2019-02-18T04:10:25.877Z,98168.59
2019-02-18T04:12:54.313Z,98170.21
2019-02-18T04:15:22.812Z,98173.59
2019-02-18T04:17:51.193Z,98172.70
2019-02-18T04:20:19.585Z,98174.78
2019-02-18T04:22:47.971Z,98181.90
2019-02-18T04:25:16.365Z,98176.79
2019-02-18T04:27:44.758Z,98183.59
2019-02-18T04:30:13.799Z,98178.44
2019-02-18T04:32:42.323Z,98180.52
2019-02-18T04:35:10.720Z,98182.62
2019-02-18T04:37:39.114Z,98178.75
2019-02-18T04:40:09.219Z,98179.14
2019-02-18T04:42:37.610Z,98179.09
2019-02-18T04:45:08.821Z,98177.41
2019-02-18T04:47:37.198Z,98174.41
2019-02-18T04:50:07.230Z,98176.95
2019-02-18T04:52:35.679Z,98173.95
2019-02-18T04:55:06.001Z,98176.45
2019-02-18T04:57:34.416Z,98174.80
2019-02-18T05:00:02.861Z,98178.59
2019-02-18T05:02:31.305Z,98181.13
2019-02-18T05:04:59.662Z,98182.78
2019-02-18T05:07:28.074Z,98182.32
2019-02-18T05:09:56.481Z,98171.72
2019-02-18T05:12:24.871Z,98179.33
2019-02-18T05:14:53.266Z,98177.67
2019-02-18T05:17:21.658Z,98175.52
2019-02-18T05:19:50.053Z,98174.64
2019-02-18T05:22:18.449Z,98168.76
2019-02-18T05:24:46.850Z,98172.95
2019-02-18T05:27:15.273Z,98115.52
2019-02-18T05:29:43.674Z,98169.56
2019-02-18T05:32:12.064Z,98170.38
2019-02-18T05:34:40.461Z,98167.80
2019-02-18T05:37:08.859Z,98166.95
2019-02-18T05:39:37.262Z,98172.83
2019-02-18T05:42:05.650Z,98174.94
2019-02-18T05:44:34.135Z,98171.14
2019-02-18T05:47:03.466Z,98168.95
2019-02-18T05:49:31.886Z,98169.80
2019-02-18T05:52:00.365Z,98172.33
2019-02-18T05:54:28.791Z,98169.72
2019-02-18T05:56:57.260Z,98172.64
2019-02-18T05:59:25.693Z,98178.59
2019-02-18T06:01:54.049Z,98142.52
2019-02-18T06:04:22.442Z,98176.78
2019-02-18T06:06:50.843Z,98170.02
2019-02-18T06:09:29.022Z,98163.30
2019-02-18T06:11:49.355Z,98165.45
2019-02-18T06:14:17.853Z,98162.03
2019-02-18T06:16:46.941Z,98168.22
2019-02-18T06:19:15.333Z,98169.10
2019-02-18T06:21:43.732Z,98172.48
2019-02-18T06:24:12.124Z,98165.76
2019-02-18T06:26:40.521Z,98159.92
2019-02-18T06:29:08.918Z,98169.18
2019-02-18T06:31:37.312Z,98166.64
2019-02-18T06:34:05.779Z,98170.83
2019-02-18T06:36:34.166Z,98175.09
2019-02-18T06:39:02.760Z,98175.14
2019-02-18T06:41:32.712Z,98181.05
2019-02-18T06:44:01.102Z,98178.05
2019-02-18T06:46:33.825Z,98180.59
2019-02-18T06:49:06.679Z,98185.66
2019-02-18T06:51:35.069Z,98185.66
2019-02-18T06:54:03.462Z,98185.27
2019-02-18T06:56:45.579Z,98182.70
2019-02-18T06:59:18.402Z,98186.11
2019-02-18T07:01:54.609Z,98193.80
2019-02-18T07:04:27.670Z,98191.34
2019-02-18T07:07:03.606Z,98193.12
2019-02-18T07:09:33.650Z,98196.57
2019-02-18T07:12:18.897Z,98199.19
2019-02-18T07:14:47.391Z,98203.07
2019-02-18T07:17:15.804Z,98205.38
2019-02-18T07:19:44.193Z,98194.39
2019-02-18T07:22:12.584Z,98194.08
2019-02-18T07:24:40.979Z,98195.46
2019-02-18T07:27:09.381Z,98187.89
2019-02-18T07:29:37.787Z,98191.42
2019-02-18T07:32:06.186Z,98184.31
2019-02-18T07:34:34.581Z,98184.03
2019-02-18T07:37:03.086Z,98191.72
2019-02-18T07:39:31.482Z,98186.75
2019-02-18T07:41:59.883Z,98183.47
2019-02-18T07:44:28.284Z,98182.31
2019-02-18T07:46:56.674Z,98187.03
2019-02-18T07:49:25.068Z,98186.30
2019-02-18T07:51:53.512Z,98183.83
2019-02-18T07:54:21.925Z,98181.78
2019-02-18T07:56:50.317Z,98184.03
2019-02-18T07:59:18.715Z,98173.55
2019-02-18T08:01:47.102Z,98173.20
2019-02-18T08:04:15.497Z,98178.41
2019-02-18T08:06:43.895Z,98172.16
2019-02-18T08:09:12.298Z,98173.14
2019-02-18T08:11:40.682Z,98173.69
2019-02-18T08:14:09.089Z,98177.17
2019-02-18T08:16:37.469Z,98171.34
2019-02-18T08:19:05.874Z,98174.40
2019-02-18T08:21:34.267Z,98171.52
2019-02-18T08:24:02.734Z,98173.34
2019-02-18T08:26:31.135Z,98173.49
2019-02-18T08:28:59.622Z,98174.45
2019-02-18T08:31:28.149Z,98169.04
2019-02-18T08:33:56.587Z,98167.88
2019-02-18T08:36:25.149Z,98173.95
2019-02-18T08:38:53.533Z,98166.92
2019-02-18T08:41:21.992Z,98162.77
2019-02-18T08:43:50.396Z,98164.12
2019-02-18T08:46:18.788Z,98168.04
2019-02-18T08:48:47.226Z,98165.17
2019-02-18T08:51:15.759Z,98165.26
2019-02-18T08:53:44.114Z,98161.95
2019-02-18T08:56:12.508Z,98162.91
2019-02-18T08:58:40.900Z,98162.56
2019-02-18T09:01:09.358Z,98163.94
2019-02-18T09:03:37.766Z,98161.04
2019-02-18T09:06:06.216Z,98162.41
2019-02-18T09:08:34.631Z,98156.16
2019-02-18T09:11:03.022Z,98158.42
2019-02-18T09:13:31.479Z,98148.80
2019-02-18T09:16:00.599Z,98151.13
2019-02-18T09:18:29.035Z,98144.89
2019-02-18T09:20:57.425Z,98145.83
2019-02-18T09:23:30.150Z,98142.03
2019-02-18T09:25:58.622Z,98142.05
2019-02-18T09:28:27.012Z,98141.66
2019-02-18T09:30:55.406Z,98146.41
2019-02-18T09:33:24.790Z,98124.74
2019-02-18T09:35:55.618Z,98144.94
2019-02-18T09:38:25.506Z,98145.49
2019-02-18T09:40:53.999Z,98146.05
2019-02-18T09:43:22.451Z,98144.39
2019-02-18T09:45:50.855Z,98150.34
2019-02-18T09:48:19.248Z,98150.86
2019-02-18T09:50:47.644Z,98152.27
2019-02-18T09:53:16.071Z,98154.91
2019-02-18T09:55:44.468Z,98150.73
2019-02-18T09:58:12.857Z,98153.81
2019-02-18T10:00:41.254Z,98150.03
2019-02-18T10:03:09.645Z,98153.86
2019-02-18T10:05:38.042Z,98153.41
2019-02-18T10:08:06.442Z,98155.56
2019-02-18T10:10:34.833Z,98147.98
2019-02-18T10:13:03.229Z,98149.70
2019-02-18T10:15:31.627Z,98151.00
2019-02-18T10:18:00.094Z,98152.73
2019-02-18T10:20:28.552Z,98143.34
2019-02-18T10:22:56.962Z,98140.89
2019-02-18T10:25:25.385Z,98141.36
2019-02-18T10:27:53.792Z,98138.50
2019-02-18T10:30:22.175Z,98130.03
2019-02-18T10:32:50.564Z,98131.74
2019-02-18T10:35:18.977Z,98133.49
2019-02-18T10:37:54.823Z,98129.26
2019-02-18T10:40:17.473Z,98127.98
2019-02-18T10:42:45.861Z,98120.78
2019-02-18T10:45:14.276Z,98116.56
2019-02-18T10:47:42.709Z,98109.34
2019-02-18T10:50:12.107Z,98111.45
2019-02-18T10:52:40.502Z,98102.95
2019-02-18T10:55:12.379Z,98107.23
2019-02-18T10:57:40.943Z,98102.08
2019-02-18T11:00:12.236Z,98092.28
2019-02-18T11:02:40.626Z,98091.02
2019-02-18T11:05:09.281Z,98094.01
2019-02-18T11:07:37.678Z,98087.17
2019-02-18T11:10:09.193Z,98079.94
2019-02-18T11:12:37.589Z,98080.78
2019-02-18T11:15:07.936Z,98075.67
2019-02-18T11:17:38.984Z,98064.98
2019-02-18T11:20:08.792Z,98063.64
2019-02-18T11:22:37.193Z,98060.23
2019-02-18T11:25:10.839Z,98055.10
2019-02-18T11:27:39.325Z,98053.39
2019-02-18T11:30:18.170Z,98046.58
2019-02-18T11:32:46.655Z,98044.39
2019-02-18T11:35:15.182Z,98037.97
2019-02-18T11:37:43.582Z,98026.78
2019-02-18T11:40:16.482Z,98023.37
2019-02-18T11:42:44.949Z,98021.63
2019-02-18T11:45:14.690Z,98019.47
2019-02-18T11:47:43.073Z,98016.89
2019-02-18T11:50:13.602Z,98010.50
2019-02-18T11:52:41.989Z,98011.25
2019-02-18T11:55:12.218Z,98007.41
2019-02-18T11:57:41.057Z,98001.00
2019-02-18T12:00:16.745Z,97992.40
2019-02-18T12:02:45.133Z,97988.00
2019-02-18T12:05:13.892Z,97984.44
2019-02-18T12:07:42.291Z,97979.20
2019-02-18T12:10:12.806Z,97970.25
2019-02-18T12:12:41.483Z,97969.81
2019-02-18T12:15:14.631Z,97967.56
2019-02-18T12:17:43.029Z,97959.33
2019-02-18T12:20:15.083Z,97954.54
2019-02-18T12:22:43.542Z,97956.41
2019-02-18T12:25:13.068Z,97951.72
2019-02-18T12:27:41.816Z,97947.82
2019-02-18T12:30:16.110Z,97946.98
2019-02-18T12:32:44.564Z,97941.88
2019-02-18T12:35:13.593Z,97940.63
2019-02-18T12:37:42.112Z,97942.27
2019-02-18T12:40:12.008Z,97935.76
2019-02-18T12:42:42.394Z,97929.60
2019-02-18T12:45:12.086Z,97921.03
2019-02-18T12:47:40.552Z,97927.00
2019-02-18T12:50:11.213Z,97918.82
2019-02-18T12:52:39.561Z,97913.34
2019-02-18T12:55:10.216Z,97912.66
2019-02-18T12:57:38.977Z,97901.02
2019-02-18T13:00:15.023Z,97901.05
2019-02-18T13:02:45.016Z,97893.16
2019-02-18T13:05:14.108Z,97881.22
2019-02-18T13:07:42.607Z,97885.47
2019-02-18T13:10:11.612Z,97883.70
2019-02-18T13:12:40.380Z,97874.79
2019-02-18T13:15:11.587Z,97872.61
2019-02-18T13:17:39.979Z,97866.98
2019-02-18T13:20:08.913Z,97864.72
2019-02-18T13:22:37.302Z,97867.72
2019-02-18T13:25:07.137Z,97861.75
2019-02-18T13:27:35.532Z,97851.25
2019-02-18T13:30:07.351Z,97849.94
2019-02-18T13:32:35.828Z,97848.06
2019-02-18T13:35:05.588Z,97850.55
2019-02-18T13:37:33.993Z,97837.94
2019-02-18T13:40:02.408Z,97837.96
2019-02-18T13:42:30.867Z,97837.43
2019-02-18T13:44:59.537Z,97831.89
2019-02-18T13:47:28.014Z,97832.76
2019-02-18T13:49:56.473Z,97834.58
2019-02-18T13:52:24.892Z,97837.68
2019-02-18T13:54:53.280Z,97834.31
2019-02-18T13:57:21.683Z,97836.94
2019-02-18T13:59:50.082Z,97828.78
2019-02-18T14:02:18.650Z,97827.06
2019-02-18T14:04:47.058Z,97824.07
2019-02-18T14:07:15.442Z,97817.64
2019-02-18T14:09:43.904Z,97818.48
2019-02-18T14:12:16.219Z,97812.44
2019-02-18T14:14:42.567Z,97794.64
2019-02-18T14:17:11.352Z,97820.05
2019-02-18T14:19:39.734Z,97817.81
2019-02-18T14:22:08.473Z,97818.17
2019-02-18T14:24:36.868Z,97814.26
2019-02-18T14:27:05.325Z,97817.78
2019-02-18T14:29:33.730Z,97808.83
2019-02-18T14:32:02.161Z,97810.51
2019-02-18T14:34:30.536Z,97809.53
2019-02-18T14:36:58.929Z,97803.48
2019-02-18T14:39:27.331Z,97805.55
2019-02-18T14:41:55.721Z,97793.13
2019-02-18T14:44:24.149Z,97793.97
2019-02-18T14:46:52.614Z,97786.99
2019-02-18T14:49:21.269Z,97793.84
2019-02-18T14:51:49.702Z,97783.58
2019-02-18T14:54:18.257Z,97784.06
2019-02-18T14:56:46.636Z,97783.66
2019-02-18T14:59:15.022Z,97790.61
2019-02-18T15:01:43.580Z,97788.48
2019-02-18T15:04:11.971Z,97791.09
2019-02-18T15:06:40.359Z,97781.27
2019-02-18T15:09:08.807Z,97780.45
2019-02-18T15:11:37.466Z,97779.61
2019-02-18T15:14:05.918Z,97782.02
2019-02-18T15:16:34.313Z,97780.28
2019-02-18T15:19:02.769Z,97777.70
2019-02-18T15:21:31.354Z,97770.61
2019-02-18T15:23:59.748Z,97769.33
2019-02-18T15:26:28.137Z,97767.23
2019-02-18T15:28:56.545Z,97772.83
2019-02-18T15:31:25.833Z,97762.89
2019-02-18T15:33:54.296Z,97758.61
2019-02-18T15:36:23.139Z,97756.98
2019-02-18T15:38:51.525Z,97759.66
2019-02-18T15:41:19.923Z,97755.94
2019-02-18T15:43:48.311Z,97752.97
2019-02-18T15:46:17.722Z,97760.70
2019-02-18T15:48:46.125Z,97752.52
2019-02-18T15:51:14.584Z,97749.47
2019-02-18T15:53:42.989Z,97753.00
2019-02-18T15:56:11.377Z,97749.27
2019-02-18T15:58:39.772Z,97748.48
2019-02-18T16:01:08.169Z,97746.92
2019-02-18T16:03:36.567Z,97741.84
2019-02-18T16:06:04.962Z,97745.79
2019-02-18T16:08:33.653Z,97739.44
2019-02-18T16:11:02.048Z,97736.11
2019-02-18T16:13:30.506Z,97734.19
2019-02-18T16:15:58.895Z,97731.28
2019-02-18T16:18:27.292Z,97727.05
2019-02-18T16:20:55.686Z,97728.51
2019-02-18T16:23:24.080Z,97719.67
2019-02-18T16:25:52.470Z,97719.85
2019-02-18T16:28:20.855Z,97719.61
2019-02-18T16:30:49.244Z,97724.94
2019-02-18T16:33:17.638Z,97729.33
2019-02-18T16:35:46.039Z,97730.77
2019-02-18T16:38:14.453Z,97732.61
2019-02-18T16:40:42.855Z,97737.96
2019-02-18T16:43:11.248Z,97732.06
2019-02-18T16:45:39.652Z,97736.48
2019-02-18T16:48:08.421Z,97740.88
2019-02-18T16:50:36.864Z,97738.43
2019-02-18T16:53:05.346Z,97736.87
2019-02-18T16:55:34.236Z,97743.38
2019-02-18T16:58:02.628Z,97747.33
2019-02-18T17:00:32.667Z,97745.72
2019-02-18T17:03:01.136Z,97746.25
2019-02-18T17:05:29.545Z,97741.68
2019-02-18T17:07:58.004Z,97748.66
2019-02-18T17:10:26.672Z,97740.66
2019-02-18T17:12:55.074Z,97748.89
2019-02-18T17:15:23.484Z,97754.95
2019-02-18T17:17:51.872Z,97749.05
2019-02-18T17:20:20.283Z,97749.54
2019-02-18T17:22:48.671Z,97749.14
2019-02-18T17:25:17.138Z,97744.89
2019-02-18T17:27:45.824Z,97750.92
2019-02-18T17:30:15.657Z,97750.09
2019-02-18T17:32:44.050Z,97746.67
2019-02-18T17:35:15.774Z,97741.56
2019-02-18T17:37:44.171Z,97741.58
2019-02-18T17:40:13.816Z,97741.19
2019-02-18T17:42:42.585Z,97744.17
2019-02-18T17:45:13.463Z,97742.09
2019-02-18T17:47:41.877Z,97745.96
2019-02-18T17:50:12.624Z,97736.66
2019-02-18T17:52:41.023Z,97743.55
2019-02-18T17:55:11.991Z,97739.77
2019-02-18T17:57:40.661Z,97741.08
2019-02-18T18:00:14.874Z,97740.25
2019-02-18T18:02:43.264Z,97736.02
2019-02-18T18:05:11.796Z,97744.98
2019-02-18T18:07:40.243Z,97745.44
2019-02-18T18:10:13.473Z,97747.59
2019-02-18T18:12:42.103Z,97742.94
2019-02-18T18:15:12.200Z,97745.09
2019-02-18T18:17:40.600Z,97742.53
2019-02-18T18:20:13.058Z,97742.98
2019-02-18T18:22:41.518Z,97740.44
2019-02-18T18:25:11.924Z,97739.63
2019-02-18T18:27:40.393Z,97739.66
2019-02-18T18:30:17.303Z,97730.73
2019-02-18T18:32:45.693Z,97730.75
2019-02-18T18:35:14.354Z,97723.97
2019-02-18T18:37:42.734Z,97726.55
2019-02-18T18:40:15.791Z,97730.84
2019-02-18T18:42:44.203Z,97729.58
2019-02-18T18:45:15.702Z,97724.47
2019-02-18T18:47:44.238Z,97727.88
2019-02-18T18:50:23.192Z,97726.20
2019-02-18T18:52:51.586Z,97728.77
2019-02-18T18:55:19.980Z,97728.77
2019-02-18T18:57:48.443Z,97728.33
2019-02-18T19:00:23.696Z,97730.03
2019-02-18T19:02:52.162Z,97726.20
2019-02-18T19:05:20.815Z,97727.04
2019-02-18T19:07:49.208Z,97721.49
2019-02-18T19:10:17.662Z,97721.94
2019-02-18T19:12:46.056Z,97722.83
2019-02-18T19:15:15.606Z,97716.89
2019-02-18T19:17:44.010Z,97715.18
2019-02-18T19:20:13.155Z,97713.47
2019-02-18T19:22:42.549Z,97714.34
2019-02-18T19:25:12.477Z,97713.50
2019-02-18T19:27:40.871Z,97713.50
2019-02-18T19:30:14.787Z,97708.39
2019-02-18T19:32:44.094Z,97708.39
2019-02-18T19:35:12.491Z,97710.94
2019-02-18T19:37:40.894Z,97718.59
2019-02-18T19:40:11.749Z,97725.81
2019-02-18T19:42:41.081Z,97726.25
2019-02-18T19:45:12.710Z,97733.91
2019-02-18T19:47:41.411Z,97730.52
2019-02-18T19:50:09.918Z,97733.91
2019-02-18T19:52:38.331Z,97739.85
2019-02-18T19:55:09.218Z,97738.60
2019-02-18T19:57:37.669Z,97739.87
2019-02-18T20:00:17.487Z,97745.37
2019-02-18T20:02:45.942Z,97747.07
2019-02-18T20:05:14.567Z,97741.12
2019-02-18T20:07:44.279Z,97736.45
2019-02-18T20:10:13.394Z,97739.00
2019-02-18T20:12:41.801Z,97738.12
2019-02-18T20:15:13.132Z,97741.53
2019-02-18T20:17:41.524Z,97738.97
2019-02-18T20:20:12.515Z,97740.63
2019-02-18T20:22:40.912Z,97744.05
2019-02-18T20:25:09.845Z,97744.02
2019-02-18T20:27:38.303Z,97743.99
2019-02-18T20:30:12.340Z,97746.13
2019-02-18T20:32:40.746Z,97743.13
2019-02-18T20:35:10.576Z,97718.41
2019-02-18T20:37:39.944Z,97740.97
2019-02-18T20:40:09.708Z,97740.12
2019-02-18T20:42:38.586Z,97738.40
2019-02-18T20:45:11.662Z,97740.50
2019-02-18T20:47:42.058Z,97738.80
2019-02-18T20:50:12.022Z,97743.88
2019-02-18T20:52:40.548Z,97742.15
2019-02-18T20:55:11.296Z,97743.00
2019-02-18T20:57:39.684Z,97742.12
2019-02-18T21:00:12.535Z,97738.27
2019-02-18T21:02:40.999Z,97741.23
2019-02-18T21:05:09.476Z,97739.52
2019-02-18T21:07:37.868Z,97738.64
2019-02-18T21:10:11.757Z,97739.88
2019-02-18T21:12:40.207Z,97743.70
2019-02-18T21:15:09.250Z,97736.48
2019-02-18T21:17:37.643Z,97743.69
2019-02-18T21:20:08.499Z,97736.04
2019-02-18T21:22:37.749Z,97746.23
2019-02-18T21:25:08.375Z,97742.04
2019-02-18T21:27:36.783Z,97744.98
2019-02-18T21:30:08.245Z,97742.84
2019-02-18T21:32:36.685Z,97741.12
2019-02-18T21:35:06.467Z,97745.36
2019-02-18T21:37:34.866Z,97741.95
2019-02-18T21:40:04.267Z,97742.34
2019-02-18T21:42:33.623Z,97741.09
2019-02-18T21:45:02.038Z,97745.28
2019-02-18T21:47:30.442Z,97744.40
2019-02-18T21:49:58.841Z,97747.77
2019-02-18T21:52:27.243Z,97752.80
2019-02-18T21:54:56.013Z,97748.52
2019-02-18T21:57:24.429Z,97752.31
2019-02-18T21:59:52.830Z,97756.96
2019-02-18T22:02:21.233Z,97751.02
2019-02-18T22:04:49.690Z,97747.61
2019-02-18T22:07:18.083Z,97749.30
2019-02-18T22:09:46.478Z,97748.44
2019-02-18T22:12:14.876Z,97744.59
2019-02-18T22:14:43.258Z,97743.76
2019-02-18T22:17:11.657Z,97746.27
2019-02-18T22:19:40.055Z,97742.00
2019-02-18T22:22:08.458Z,97754.31
2019-02-18T22:24:36.853Z,97750.86
2019-02-18T22:27:05.353Z,97751.27
2019-02-18T22:29:33.739Z,97751.71
2019-02-18T22:32:02.128Z,97755.50
2019-02-18T22:34:30.541Z,97748.28
2019-02-18T22:36:58.909Z,97743.58
2019-02-18T22:39:27.298Z,97745.71
2019-02-18T22:41:55.687Z,97750.77
2019-02-18T22:44:24.077Z,97746.48
2019-02-18T22:46:52.468Z,97743.08
2019-02-18T22:49:20.866Z,97735.43
2019-02-18T22:51:49.262Z,97738.80
2019-02-18T22:54:17.644Z,97738.34
2019-02-18T22:56:46.105Z,97743.41
2019-02-18T22:59:14.505Z,97745.04
2019-02-18T23:01:42.900Z,97743.72
2019-02-18T23:04:11.298Z,97743.73
2019-02-18T23:06:39.709Z,97747.95
2019-02-18T23:09:09.796Z,97750.08
2019-02-18T23:11:38.196Z,97749.62
2019-02-18T23:14:07.262Z,97746.23
2019-02-18T23:16:35.654Z,97746.63
2019-02-18T23:19:04.426Z,97752.14
2019-02-18T23:21:32.829Z,97757.63
2019-02-18T23:24:01.227Z,97752.90
2019-02-18T23:26:29.636Z,97758.41
2019-02-18T23:28:58.029Z,97760.53
2019-02-18T23:31:26.428Z,97755.82
2019-02-18T23:33:54.824Z,97759.22
2019-02-18T23:36:23.408Z,97755.39
2019-02-18T23:38:51.811Z,97756.25
2019-02-18T23:41:20.206Z,97756.23
2019-02-18T23:43:48.601Z,97753.63
2019-02-18T23:46:16.995Z,97759.58
2019-02-18T23:48:45.393Z,97762.10
2019-02-18T23:51:13.834Z,97761.24
2019-02-18T23:53:42.179Z,97764.61
2019-02-18T23:56:10.568Z,97757.39
2019-02-18T23:58:38.973Z,97760.76
